Time;durP1;ratioP1;P1;durP2;ratioP2;P2;SDS_P1;SDS_P2;PMS_P1;PMS_P2;Temp;Humidity;BMP_temperature;BMP_pressure;BME280_temperature;BME280_humidity;BME280_pressure;Samples;Min_cycle;Max_cycle;Signal;HPM_P1;HPM_P2
2024/02/09 00:02:03;;;;;;;5.57;2.33;;;;;;;-145.69;50.98;52214.66;5133387;27;20712;-80
2024/02/09 00:04:30;;;;;;;10.18;1.80;;;;;;;-145.69;51.07;52200.81;5133736;27;20218;-81
2024/02/09 00:06:56;;;;;;;9.60;1.30;;;;;;;-145.69;50.53;52190.91;5133462;27;20677;-82
2024/02/09 00:09:23;;;;;;;7.43;1.25;;;;;;;-145.69;50.74;52226.53;5133557;27;20216;-81
2024/02/09 00:11:50;;;;;;;4.10;1.40;;;;;;;-145.69;51.28;52216.66;5133672;27;20217;-82
2024/02/09 00:14:17;;;;;;;4.97;1.50;;;;;;;-145.69;50.57;52206.75;5133519;27;20596;-82
2024/02/09 00:16:44;;;;;;;5.97;1.60;;;;;;;-145.69;50.54;52226.53;5133824;27;20201;-81
2024/02/09 00:19:11;;;;;;;8.77;1.65;;;;;;;-145.69;50.18;52202.78;5133395;27;20196;-81
2024/02/09 00:21:39;;;;;;;6.18;1.33;;;;;;;-145.69;50.60;52202.78;5133713;28;20272;-81
2024/02/09 00:24:06;;;;;;;4.07;1.40;;;;;;;-145.69;51.60;52218.63;5133011;28;20614;-82
2024/02/09 00:26:32;;;;;;;5.65;1.23;;;;;;;-145.69;51.78;52242.38;5132851;27;20203;-81
2024/02/09 00:29:01;;;;;;;5.07;1.60;;;;;;;-145.69;51.73;52214.66;5133725;28;20253;-82
2024/02/09 00:31:28;;;;;;;6.72;1.15;;;;;;;-145.69;52.46;52232.50;5132974;27;20249;-82
2024/02/09 00:33:55;;;;;;;8.38;1.35;;;;;;;-145.69;53.12;52226.53;5132902;28;20651;-81
2024/02/09 00:36:22;;;;;;;9.07;1.75;;;;;;;-145.69;52.77;52224.56;5133188;27;20707;-81
2024/02/09 00:38:50;;;;;;;5.82;1.40;;;;;;;-145.69;53.30;52202.78;5133519;27;20194;-81
2024/02/09 00:41:17;;;;;;;6.72;1.48;;;;;;;-145.69;53.09;52226.53;5133621;27;20243;-82
2024/02/09 00:43:46;;;;;;;5.03;1.30;;;;;;;-145.69;53.57;52194.88;5133135;27;20211;-81
2024/02/09 00:46:15;;;;;;;8.88;1.63;;;;;;;-145.69;54.33;52218.63;5133403;27;20597;-81
2024/02/09 00:48:44;;;;;;;3.17;1.13;;;;;;;-145.69;54.30;52218.63;5133160;27;20197;-81
2024/02/09 00:51:10;;;;;;;6.00;1.65;;;;;;;-145.69;54.37;52202.78;5132864;27;20315;-81
2024/02/09 00:53:37;;;;;;;8.43;1.55;;;;;;;-145.69;55.17;52194.88;5132762;27;20270;-81
2024/02/09 00:56:06;;;;;;;4.95;1.48;;;;;;;-145.69;55.36;52238.44;5118088;27;20831;-81
2024/02/09 00:58:33;;;;;;;5.63;1.25;;;;;;;-145.69;55.17;52226.53;5112884;28;20594;-81
2024/02/09 01:00:59;;;;;;;6.05;1.75;;;;;;;-145.69;55.16;52214.66;5114550;28;20197;-82
2024/02/09 01:03:25;;;;;;;7.32;1.45;;;;;;;-145.69;54.89;52206.75;5116779;28;20209;-81
2024/02/09 01:05:53;;;;;;;6.72;1.80;;;;;;;-145.69;55.04;52204.75;5121148;27;20193;-81
2024/02/09 01:08:20;;;;;;;7.15;1.40;;;;;;;-145.69;55.39;52234.47;5136018;27;20185;-82
2024/02/09 01:10:47;;;;;;;3.10;1.42;;;;;;;-145.69;55.45;52202.78;5136786;27;20307;-81
2024/02/09 02:46:13;;;;;;;2.85;1.77;;;;;;;-145.69;59.20;52234.47;5134321;27;20204;-81
2024/02/09 03:05:06;;;;;;;2.22;0.85;;;;;;;-145.69;59.06;52224.56;5134449;27;20207;-82
2024/02/09 03:07:33;;;;;;;3.20;1.23;;;;;;;-145.69;59.54;52248.34;5134629;27;20550;-82
2024/02/09 03:10:01;;;;;;;2.22;1.13;;;;;;;-145.69;59.43;52234.47;5134511;27;20224;-82
2024/02/09 03:12:28;;;;;;;3.17;0.97;;;;;;;-145.69;59.49;52242.38;5134675;27;20693;-81
2024/02/09 03:14:56;;;;;;;0.80;0.80;;;;;;;-145.69;59.54;52238.44;5134570;27;20241;-81
2024/02/09 03:17:22;;;;;;;2.55;0.90;;;;;;;-145.69;59.80;52220.59;5134251;27;20201;-81
2024/02/09 03:19:49;;;;;;;1.95;1.00;;;;;;;-145.69;60.00;52214.66;5134413;27;20278;-81
2024/02/09 03:22:15;;;;;;;1.80;1.10;;;;;;;-145.69;60.49;52220.59;5133926;27;20201;-82
2024/02/09 03:24:42;;;;;;;2.50;1.05;;;;;;;-145.69;60.56;52230.50;5133976;27;20743;-82
2024/02/09 03:27:08;;;;;;;1.92;1.00;;;;;;;-145.69;60.35;52226.53;5134262;27;20197;-81
2024/02/09 03:29:36;;;;;;;1.10;0.80;;;;;;;-145.69;60.06;52238.44;5134059;27;20246;-82
2024/02/09 03:32:04;;;;;;;2.53;1.17;;;;;;;-145.69;59.80;52238.44;5134335;27;20277;-81
2024/02/09 03:34:31;;;;;;;1.57;1.10;;;;;;;-145.69;59.97;52260.22;5133848;27;20681;-82
2024/02/09 03:36:57;;;;;;;6.87;1.67;;;;;;;-145.69;59.76;52210.72;5134309;27;20197;-82
2024/02/09 03:39:24;;;;;;;1.98;1.08;;;;;;;-145.69;59.27;52234.47;5133985;27;20236;-81
2024/02/09 03:41:50;;;;;;;2.80;1.10;;;;;;;-145.69;59.80;52238.44;5133776;27;20293;-81
2024/02/09 03:44:17;;;;;;;2.90;1.07;;;;;;;-145.69;58.84;52222.59;5134254;27;20197;-81
2024/02/09 03:46:44;;;;;;;2.25;1.10;;;;;;;-145.69;58.71;52248.34;5134000;27;20200;-81
2024/02/09 03:49:12;;;;;;;2.13;1.03;;;;;;;-145.69;59.11;52236.44;5134013;27;20253;-81
2024/02/09 03:51:39;;;;;;;1.27;1.03;;;;;;;-145.69;59.21;52222.59;5113399;28;20240;-81
2024/02/09 03:54:06;;;;;;;2.47;1.60;;;;;;;-145.69;59.99;52190.91;5130556;27;20197;-81
2024/02/09 03:56:32;;;;;;;2.87;1.10;;;;;;;-145.69;60.13;52238.44;5133170;27;20197;-81
2024/02/09 03:58:59;;;;;;;3.47;0.93;;;;;;;-145.69;60.02;52248.34;5133775;27;20270;-80
2024/02/09 04:01:26;;;;;;;3.00;1.10;;;;;;;-145.69;60.39;52186.94;5133921;27;20232;-81
2024/02/09 04:03:52;;;;;;;4.97;1.30;;;;;;;-145.69;60.43;52238.44;5133623;27;20197;-82
2024/02/09 04:06:24;;;;;;;4.97;1.30;;;;;;;-145.69;60.94;52268.13;5133869;27;20196;-81
2024/02/09 04:08:50;;;;;;;1.30;1.20;;;;;;;-145.69;60.67;52252.28;5134094;27;20284;-81
2024/02/09 04:11:22;;;;;;;1.58;1.05;;;;;;;-145.69;61.03;52230.50;5133472;27;20234;-81
2024/02/09 04:13:49;;;;;;;1.88;1.30;;;;;;;-145.69;61.56;52238.44;5133558;27;20210;-81
2024/02/09 04:16:18;;;;;;;1.35;1.10;;;;;;;-145.69;61.28;52248.34;5133564;27;20235;-82
2024/02/09 04:18:45;;;;;;;2.50;1.20;;;;;;;-145.69;60.83;52270.13;5133652;27;20201;-83
2024/02/09 04:21:11;;;;;;;1.98;1.02;;;;;;;-145.69;60.69;52234.47;5133199;27;20666;-81
2024/02/09 04:23:39;;;;;;;1.95;1.30;;;;;;;-145.69;60.27;52226.53;5132776;28;20199;-81
2024/02/09 04:26:06;;;;;;;2.28;1.60;;;;;;;-145.69;60.20;52238.44;5132949;27;20209;-81
2024/02/09 04:28:32;;;;;;;1.90;1.00;;;;;;;-145.69;59.97;52242.38;5133649;27;20200;-81
2024/02/09 04:30:59;;;;;;;0.98;0.88;;;;;;;-145.69;59.05;52254.28;5133193;27;20221;-82
2024/02/09 04:33:25;;;;;;;1.77;1.20;;;;;;;-145.69;59.56;52246.34;5133263;28;20655;-82
2024/02/09 04:35:54;;;;;;;1.73;1.10;;;;;;;-145.69;59.41;52262.19;5135227;27;20593;-82
2024/02/09 04:38:20;;;;;;;1.52;1.00;;;;;;;-145.69;58.84;52250.31;5137689;27;20196;-82
2024/02/09 04:40:49;;;;;;;3.65;0.95;;;;;;;-145.69;58.60;52230.50;5137228;27;20189;-82
2024/02/09 04:43:15;;;;;;;1.15;0.80;;;;;;;-145.69;58.81;52234.47;5137507;27;20197;-82
2024/02/09 04:45:42;;;;;;;1.87;1.13;;;;;;;-145.69;58.09;52256.25;5137418;27;20197;-81
2024/02/09 04:48:10;;;;;;;0.95;0.80;;;;;;;-145.69;58.11;52248.34;5137641;27;20200;-82
2024/02/09 04:50:38;;;;;;;1.43;1.00;;;;;;;-145.69;58.33;52226.53;5134619;27;20217;-82
2024/02/09 04:53:05;;;;;;;0.70;0.63;;;;;;;-145.69;58.18;52248.34;5136496;27;20228;-82
2024/02/09 04:55:31;;;;;;;0.93;0.80;;;;;;;-145.69;58.08;52232.50;5137087;27;20204;-81
2024/02/09 04:57:59;;;;;;;1.23;0.90;;;;;;;-145.69;57.72;52216.66;5137335;27;20245;-81
2024/02/09 05:00:25;;;;;;;1.13;0.90;;;;;;;-145.69;58.33;52258.22;5136583;27;20201;-81
2024/02/09 05:02:52;;;;;;;1.42;0.80;;;;;;;-145.69;57.67;52256.25;5137085;27;20551;-81
2024/02/09 05:05:21;;;;;;;1.27;0.80;;;;;;;-145.69;57.67;52242.38;5137185;27;20208;-82
2024/02/09 05:07:47;;;;;;;1.73;0.70;;;;;;;-145.69;57.83;52250.31;5137210;27;20200;-82
2024/02/09 05:10:14;;;;;;;2.40;1.00;;;;;;;-145.69;57.70;52230.50;5137117;27;20197;-82
2024/02/09 05:12:42;;;;;;;1.40;0.90;;;;;;;-145.69;57.75;52218.63;5136353;27;20189;-82
2024/02/09 05:15:10;;;;;;;2.53;0.85;;;;;;;-145.69;58.42;52208.72;5136637;27;20287;-82
2024/02/09 05:17:38;;;;;;;2.35;0.90;;;;;;;-145.69;58.03;52216.66;5136937;27;20547;-82
2024/02/09 05:20:05;;;;;;;2.17;1.00;;;;;;;-145.69;58.44;52260.22;5136555;27;20610;-82
2024/02/09 05:22:32;;;;;;;3.10;1.10;;;;;;;-145.69;58.68;52289.91;5136624;27;20200;-82
2024/02/09 05:24:58;;;;;;;3.37;1.00;;;;;;;-145.69;58.03;52230.50;5136484;27;20204;-82
2024/02/09 05:27:25;;;;;;;1.38;1.10;;;;;;;-145.69;58.81;52266.16;5136558;27;20682;-82
2024/02/09 05:29:52;;;;;;;5.88;1.20;;;;;;;-145.69;58.38;52238.44;5136743;27;20200;-81
2024/02/09 05:32:22;;;;;;;1.90;1.17;;;;;;;-145.69;58.38;52254.28;5136816;27;20232;-81
2024/02/09 05:34:48;;;;;;;1.92;1.13;;;;;;;-145.69;58.07;52226.53;5136487;27;20197;-81
2024/02/09 05:37:17;;;;;;;3.08;1.00;;;;;;;-145.69;58.25;52258.22;5136804;27;20212;-82
2024/02/09 05:39:45;;;;;;;3.42;1.13;;;;;;;-145.69;58.56;52266.16;5136632;27;20282;-82
2024/02/09 05:42:11;;;;;;;1.87;1.23;;;;;;;-145.69;58.91;52214.66;5136583;27;20203;-82
2024/02/09 05:44:38;;;;;;;2.22;0.98;;;;;;;-145.69;59.02;52222.59;5136106;27;20193;-84
2024/02/09 05:47:04;;;;;;;1.58;1.10;;;;;;;-145.69;58.71;52234.47;5135972;27;20216;-84
2024/02/09 05:49:32;;;;;;;1.77;1.10;;;;;;;-145.69;57.81;52232.50;5136442;27;20253;-82
2024/02/09 05:51:59;;;;;;;3.20;1.30;;;;;;;-145.69;57.65;52230.50;5135729;27;20748;-82
2024/02/09 05:54:26;;;;;;;3.05;0.98;;;;;;;-145.69;58.40;52230.50;5136036;27;20278;-82
2024/02/09 05:56:52;;;;;;;2.33;1.17;;;;;;;-145.69;58.11;52218.63;5136384;27;20651;-82
2024/02/09 05:59:21;;;;;;;2.43;1.20;;;;;;;-145.69;57.93;52258.22;5136066;27;20559;-82
2024/02/09 06:01:48;;;;;;;3.30;1.38;;;;;;;-145.69;58.05;52232.50;5135915;27;20205;-82
2024/02/09 06:04:14;;;;;;;3.05;1.15;;;;;;;-145.69;57.75;52238.44;5136235;27;20650;-82
2024/02/09 06:06:46;;;;;;;3.10;1.30;;;;;;;-145.69;57.59;52232.50;5135755;27;20203;-81
2024/02/09 06:09:13;;;;;;;2.33;1.00;;;;;;;-145.69;56.94;52254.28;5135958;27;20205;-82
2024/02/09 06:11:39;;;;;;;2.22;1.33;;;;;;;-145.69;56.94;52250.31;5135594;27;20221;-82
2024/02/09 06:14:09;;;;;;;4.75;2.13;;;;;;;-145.69;56.89;52194.88;5135279;27;20651;-80
2024/02/09 06:16:35;;;;;;;6.07;1.35;;;;;;;-145.69;56.92;52224.56;5136029;27;20253;-81
2024/02/09 06:19:02;;;;;;;4.22;1.60;;;;;;;-145.69;56.92;52234.47;5136039;27;20207;-82
2024/02/09 06:21:28;;;;;;;2.07;1.40;;;;;;;-145.69;56.46;52234.47;5135748;27;20204;-82
2024/02/09 06:23:56;;;;;;;4.40;1.20;;;;;;;-145.69;56.55;52252.28;5135409;27;20253;-82
2024/02/09 06:26:23;;;;;;;2.57;1.07;;;;;;;-145.69;56.63;52228.53;5135637;27;20193;-82
2024/02/09 06:28:50;;;;;;;3.10;1.43;;;;;;;-145.69;56.45;52234.47;5135009;27;20284;-82
2024/02/09 06:31:17;;;;;;;3.70;1.25;;;;;;;-145.69;56.75;52194.88;5135575;27;20229;-82
2024/02/09 06:33:46;;;;;;;2.17;1.15;;;;;;;-145.69;56.56;52236.44;5135214;27;20260;-82
2024/02/09 06:36:12;;;;;;;3.95;1.05;;;;;;;-145.69;57.06;52246.34;5135518;27;20196;-82
2024/02/09 06:38:41;;;;;;;3.85;1.35;;;;;;;-145.69;56.71;52210.72;5135520;27;20238;-82
2024/02/09 06:41:09;;;;;;;2.23;1.27;;;;;;;-145.69;56.46;52250.31;5135118;27;20203;-82
2024/02/09 06:43:35;;;;;;;4.03;1.30;;;;;;;-145.69;56.72;52246.34;5134893;27;20284;-82
2024/02/09 06:46:02;;;;;;;3.27;1.00;;;;;;;-145.69;56.62;52246.34;5133796;27;20208;-82
2024/02/09 06:48:30;;;;;;;4.03;1.27;;;;;;;-145.69;56.34;52238.44;5133795;27;20287;-82
2024/02/09 06:50:58;;;;;;;2.53;1.30;;;;;;;-145.69;56.60;52214.66;5134675;27;20675;-82
2024/02/09 06:53:25;;;;;;;4.00;1.53;;;;;;;-145.69;56.70;52228.53;5135009;27;20238;-82
2024/02/09 06:55:53;;;;;;;2.63;1.20;;;;;;;-145.69;56.22;52240.41;5134625;27;20547;-82
2024/02/09 06:58:22;;;;;;;1.80;1.00;;;;;;;-145.69;55.88;52248.34;5134489;27;20228;-82
2024/02/09 07:00:49;;;;;;;4.50;1.40;;;;;;;-145.69;56.35;52270.13;5134803;27;20280;-82
2024/02/09 07:03:17;;;;;;;3.07;1.53;;;;;;;-145.69;55.53;52238.44;5134812;27;20192;-81
2024/02/09 07:05:45;;;;;;;2.58;1.23;;;;;;;-145.69;56.21;52224.56;5133884;27;20296;-82
2024/02/09 07:08:12;;;;;;;3.33;1.17;;;;;;;-145.69;55.50;52248.34;5134734;27;20222;-82
2024/02/09 07:10:39;;;;;;;2.92;1.25;;;;;;;-145.69;55.62;52218.63;5134642;27;20678;-81
2024/02/09 07:13:06;;;;;;;3.53;1.33;;;;;;;-145.69;55.91;52222.59;5134381;27;20224;-82
2024/02/09 07:15:33;;;;;;;1.55;1.25;;;;;;;-145.69;55.92;52198.81;5134734;27;20201;-82
2024/02/09 07:18:00;;;;;;;3.53;1.10;;;;;;;-145.69;55.00;52238.44;5134213;27;20659;-82
2024/02/09 07:20:26;;;;;;;1.77;1.20;;;;;;;-145.69;54.76;52238.44;5134523;27;20200;-82
2024/02/09 07:22:53;;;;;;;4.70;1.08;;;;;;;-145.69;54.45;52228.53;5133699;27;20192;-82
2024/02/09 07:25:20;;;;;;;3.22;1.10;;;;;;;-145.69;54.16;52206.75;5134414;27;20197;-81
2024/02/09 07:27:46;;;;;;;2.47;1.30;;;;;;;-145.69;54.47;52248.34;5134020;27;20247;-81
2024/02/09 07:30:15;;;;;;;6.53;1.23;;;;;;;-145.69;54.09;52238.44;5134179;27;20205;-82
2024/02/09 07:32:42;;;;;;;2.55;1.20;;;;;;;-145.69;53.84;52175.06;5134389;27;20263;-81
2024/02/09 07:35:09;;;;;;;2.70;1.17;;;;;;;-145.69;53.67;52214.66;5133591;27;20708;-83
2024/02/09 07:37:36;;;;;;;1.35;1.10;;;;;;;-145.69;53.43;52182.97;5134140;27;20327;-82
2024/02/09 07:40:05;;;;;;;1.67;0.93;;;;;;;-145.69;53.44;52210.72;5134076;27;20200;-82
2024/02/09 07:42:32;;;;;;;1.55;0.90;;;;;;;-145.69;52.44;52204.75;5134506;27;20295;-82
2024/02/09 07:44:58;;;;;;;2.78;1.13;;;;;;;-145.69;53.00;52212.69;5134399;27;20215;-82
2024/02/09 07:47:25;;;;;;;2.15;1.02;;;;;;;-145.69;52.92;52204.75;5133671;27;20185;-83
2024/02/09 07:49:52;;;;;;;2.03;1.17;;;;;;;-145.69;52.49;52230.50;5134190;27;20208;-82
2024/02/09 07:52:19;;;;;;;3.10;1.30;;;;;;;-145.69;52.42;52196.84;5133341;27;20717;-82
2024/02/09 07:54:45;;;;;;;4.32;1.30;;;;;;;-145.69;52.80;52190.91;5133777;27;20690;-81
2024/02/09 07:57:13;;;;;;;4.45;1.15;;;;;;;-145.69;52.90;52186.94;5133930;27;20204;-82
2024/02/09 07:59:42;;;;;;;5.05;1.40;;;;;;;-145.69;52.89;52218.63;5134338;27;20604;-83
2024/02/09 08:02:10;;;;;;;1.95;1.10;;;;;;;-145.69;52.97;52216.66;5133889;27;20200;-83
2024/02/09 08:04:38;;;;;;;4.30;1.65;;;;;;;-145.69;52.50;52226.53;5133646;27;20200;-82
2024/02/09 08:07:08;;;;;;;3.88;1.30;;;;;;;-145.69;52.00;52230.50;5134080;27;20204;-81
2024/02/09 08:09:35;;;;;;;1.95;1.02;;;;;;;-145.69;52.10;52222.59;5133425;27;20208;-82
2024/02/09 08:12:02;;;;;;;3.28;0.88;;;;;;;-145.69;51.30;52198.81;5133703;27;20224;-82
2024/02/09 08:14:28;;;;;;;1.63;1.05;;;;;;;-145.69;51.03;52220.59;5133856;27;20209;-83
2024/02/09 08:16:55;;;;;;;2.97;1.20;;;;;;;-145.69;50.97;52214.66;5134024;27;20587;-83
2024/02/09 08:19:21;;;;;;;3.08;0.90;;;;;;;-145.69;50.63;52198.81;5133562;27;20212;-81
2024/02/09 08:21:48;;;;;;;1.42;1.00;;;;;;;-145.69;50.97;52208.72;5133848;27;20197;-81
2024/02/09 08:24:17;;;;;;;4.78;1.33;;;;;;;-145.69;50.21;52196.84;5134183;27;20204;-82
2024/02/09 08:26:44;;;;;;;3.30;0.88;;;;;;;-145.69;50.49;52182.97;5133701;28;20224;-82
2024/02/09 08:29:10;;;;;;;5.97;1.17;;;;;;;-145.69;50.24;52228.53;5133603;28;20200;-81
2024/02/09 08:31:36;;;;;;;1.20;0.90;;;;;;;-145.69;50.77;52190.91;5132753;27;20281;-82
2024/02/09 08:34:03;;;;;;;2.50;1.10;;;;;;;-145.69;50.51;52184.97;5133305;28;20215;-81
2024/02/09 08:36:29;;;;;;;2.83;0.90;;;;;;;-145.69;50.47;52200.81;5133209;27;20261;-82
2024/02/09 08:38:56;;;;;;;2.83;0.70;;;;;;;-145.69;50.38;52210.72;5133364;27;20201;-82
2024/02/09 08:41:24;;;;;;;3.22;1.25;;;;;;;-145.69;49.47;52194.88;5133472;28;20220;-82
2024/02/09 08:43:50;;;;;;;1.95;0.98;;;;;;;-145.69;50.72;52198.81;5132726;27;20433;-81
2024/02/09 08:46:17;;;;;;;1.88;0.90;;;;;;;-145.69;50.29;52200.81;5133166;27;20204;-80
2024/02/09 08:48:43;;;;;;;4.63;1.08;;;;;;;-145.69;49.83;52190.91;5133204;28;20204;-82
2024/02/09 08:51:10;;;;;;;2.63;1.00;;;;;;;-145.69;50.06;52198.81;5133118;27;20204;-83
2024/02/09 08:53:37;;;;;;;4.32;1.30;;;;;;;-145.69;49.07;52198.81;5133434;27;20228;-81
2024/02/09 08:56:04;;;;;;;2.85;1.20;;;;;;;-145.69;49.15;52181.00;5133360;28;20633;-81
2024/02/09 08:58:32;;;;;;;4.40;1.00;;;;;;;-145.69;48.52;52151.28;5118914;27;20209;-81
2024/02/09 09:00:59;;;;;;;3.70;1.23;;;;;;;-145.69;48.21;52165.16;5132792;28;20196;-83
2024/02/09 09:03:27;;;;;;;2.08;1.10;;;;;;;-145.69;47.25;52171.09;5132830;27;20549;-82
2024/02/09 09:05:53;;;;;;;1.42;0.85;;;;;;;-145.69;45.98;52192.88;5132533;28;20189;-82
2024/02/09 09:08:20;;;;;;;2.10;0.80;;;;;;;-145.69;46.21;52155.25;5133357;27;20201;-81
2024/02/09 09:10:47;;;;;;;2.00;0.90;;;;;;;-145.69;45.19;52171.09;5132813;27;20199;-80
2024/02/09 09:13:13;;;;;;;1.92;0.80;;;;;;;-145.69;45.03;52139.41;5132791;27;20224;-81
2024/02/09 09:15:41;;;;;;;4.68;1.05;;;;;;;-145.69;44.09;52155.25;5132023;27;20597;-82
2024/02/09 09:18:08;;;;;;;3.33;1.42;;;;;;;-145.69;44.27;52135.47;5133317;27;20196;-81
2024/02/09 09:20:35;;;;;;;7.47;2.60;;;;;;;-145.69;44.40;52163.19;5132908;27;20203;-81
2024/02/09 09:23:01;;;;;;;8.07;2.45;;;;;;;-145.69;44.58;52171.09;5136617;27;20246;-81
2024/02/09 09:25:29;;;;;;;7.95;2.28;;;;;;;-145.69;45.30;52175.06;5136569;27;20555;-81
2024/02/09 09:27:56;;;;;;;3.75;1.50;;;;;;;-145.69;44.99;52167.13;5136485;27;20192;-81
2024/02/09 09:30:22;;;;;;;3.38;1.88;;;;;;;-145.69;45.61;52155.25;5136450;27;20193;-80
2024/02/09 09:32:50;;;;;;;3.90;1.48;;;;;;;-145.69;45.44;52115.66;5136523;27;20273;-80
2024/02/09 09:35:16;;;;;;;6.25;1.30;;;;;;;-145.69;45.45;52175.06;5136170;27;20204;-80
2024/02/09 09:37:44;;;;;;;2.70;1.00;;;;;;;-145.69;45.75;52135.47;5136598;27;20575;-81
2024/02/09 09:40:12;;;;;;;4.80;2.13;;;;;;;-145.69;45.64;52175.06;5136568;27;20653;-80
2024/02/09 09:42:41;;;;;;;5.10;2.42;;;;;;;-145.69;46.02;52159.22;5135978;27;20600;-81
2024/02/09 09:45:08;;;;;;;3.70;1.15;;;;;;;-145.69;45.58;52157.25;5136522;27;20254;-81
2024/02/09 09:47:40;;;;;;;4.88;1.88;;;;;;;-145.69;45.68;52198.81;5135650;27;20201;-82
2024/02/09 09:50:11;;;;;;;12.00;4.32;;;;;;;-145.69;45.57;52171.09;5136153;27;20246;-81
2024/02/09 09:52:44;;;;;;;15.95;4.18;;;;;;;-145.69;45.52;52151.28;5135704;27;20251;-66
2024/02/09 09:55:12;;;;;;;3.58;1.20;;;;;;;-145.69;45.21;52181.00;5136186;27;20232;-80
2024/02/09 09:57:39;;;;;;;5.38;1.83;;;;;;;-145.69;45.33;52169.13;5136435;27;20220;-81
2024/02/09 10:00:07;;;;;;;9.07;3.13;;;;;;;-145.69;44.93;52153.28;5135788;27;20201;-81
2024/02/09 10:02:49;;;;;;;3.92;2.28;;;;;;;-145.69;44.37;52184.97;5135949;27;20197;-81
2024/02/09 10:05:17;;;;;;;3.75;1.77;;;;;;;-145.69;44.42;52139.41;5132443;27;20225;-81
2024/02/09 10:07:48;;;;;;;4.10;2.33;;;;;;;-145.69;44.50;52151.28;5135808;27;20189;-80
2024/02/09 10:10:16;;;;;;;3.53;1.15;;;;;;;-145.69;44.65;52167.13;5136241;27;20235;-80
2024/02/09 10:12:44;;;;;;;1.45;0.90;;;;;;;-145.69;44.33;52159.22;5135827;27;20746;-80
2024/02/09 10:15:11;;;;;;;2.42;1.10;;;;;;;-145.69;44.41;52147.34;5136034;27;20253;-79
2024/02/09 10:17:41;;;;;;;2.03;0.90;;;;;;;-145.69;43.99;52153.28;5135579;27;20211;-80
2024/02/09 10:20:09;;;;;;;5.95;1.05;;;;;;;-145.69;44.24;52111.69;5135841;27;20193;-80
2024/02/09 10:22:38;;;;;;;1.95;1.08;;;;;;;-145.69;43.79;52145.34;5135651;27;20200;-80
2024/02/09 10:25:05;;;;;;;1.40;0.82;;;;;;;-145.69;43.47;52143.38;5135756;27;20299;-80
2024/02/09 10:27:34;;;;;;;2.15;0.80;;;;;;;-145.69;43.51;52151.28;5135931;27;20201;-80
2024/02/09 10:30:08;;;;;;;3.60;0.80;;;;;;;-145.69;43.63;52141.41;5135440;27;20201;-80
2024/02/09 10:32:37;;;;;;;2.33;0.98;;;;;;;-145.69;43.60;52167.13;5134240;27;20227;-80
2024/02/09 10:35:06;;;;;;;4.28;0.95;;;;;;;-145.69;43.79;52159.22;5135370;27;20295;-80
2024/02/09 10:37:32;;;;;;;2.50;1.00;;;;;;;-145.69;43.86;52192.88;5134332;27;20188;-80
2024/02/09 10:40:06;;;;;;;3.47;1.13;;;;;;;-145.69;44.27;52171.09;5135353;27;20196;-81
2024/02/09 10:42:36;;;;;;;1.88;0.80;;;;;;;-145.69;43.85;52171.09;5134943;27;20283;-82
2024/02/09 10:45:03;;;;;;;4.22;0.60;;;;;;;-145.69;43.18;52147.34;5135310;27;20559;-80
2024/02/09 10:47:30;;;;;;;1.55;0.80;;;;;;;-145.69;43.38;52175.06;5135653;27;20200;-79
2024/02/09 10:49:59;;;;;;;2.92;0.90;;;;;;;-145.69;41.96;52151.28;5135415;27;20201;-82
2024/02/09 10:52:27;;;;;;;2.65;0.77;;;;;;;-145.69;42.77;52151.28;5134683;27;20239;-81
2024/02/09 10:54:56;;;;;;;2.40;0.75;;;;;;;-145.69;42.76;52165.16;5134778;27;20203;-81
2024/02/09 10:57:25;;;;;;;2.47;0.85;;;;;;;-145.69;42.46;52171.09;5135004;27;20208;-80
2024/02/09 10:59:51;;;;;;;2.63;1.00;;;;;;;-145.69;42.64;52155.25;5135057;27;20197;-81
2024/02/09 11:02:19;;;;;;;1.42;0.80;;;;;;;-145.69;42.94;52153.28;5135008;27;20200;-81
2024/02/09 11:04:46;;;;;;;4.20;0.93;;;;;;;-145.69;42.72;52155.25;5134441;27;20238;-81
2024/02/09 11:07:16;;;;;;;2.30;0.70;;;;;;;-145.69;42.56;52131.50;5129678;27;20201;-81
2024/02/09 11:09:44;;;;;;;1.75;0.70;;;;;;;-145.69;42.64;52163.19;5113969;28;20201;-81
2024/02/09 11:12:12;;;;;;;4.45;1.20;;;;;;;-145.69;42.74;52159.22;5113731;28;20201;-81
2024/02/09 11:14:44;;;;;;;2.47;0.80;;;;;;;-145.69;42.25;52151.28;5114181;28;20202;-81
2024/02/09 11:17:11;;;;;;;5.03;0.73;;;;;;;-145.69;42.49;52177.03;5114122;28;20752;-81
2024/02/09 11:19:38;;;;;;;4.32;1.20;;;;;;;-145.69;43.62;52161.19;5117936;27;20252;-81
2024/02/09 11:22:05;;;;;;;1.55;0.95;;;;;;;-145.69;42.93;52163.19;5134668;27;20201;-81
2024/02/09 11:24:32;;;;;;;2.58;1.00;;;;;;;-145.69;43.94;52139.41;5134554;27;20533;-80
2024/02/09 11:27:00;;;;;;;3.15;0.80;;;;;;;-145.69;43.19;52149.31;5134510;27;20283;-81
2024/02/09 11:29:26;;;;;;;1.05;0.90;;;;;;;-145.69;43.62;52147.34;5134029;27;20207;-81
2024/02/09 11:31:56;;;;;;;2.70;1.10;;;;;;;-145.69;43.90;52153.28;5134475;27;20208;-80
2024/02/09 11:34:24;;;;;;;1.52;1.00;;;;;;;-145.69;43.97;52127.53;5132506;27;20689;-81
2024/02/09 11:36:58;;;;;;;1.63;0.75;;;;;;;-145.69;44.55;52153.28;5133662;27;20651;-81
2024/02/09 11:39:25;;;;;;;1.52;1.02;;;;;;;-145.69;44.14;52131.50;5134431;27;20273;-81
2024/02/09 11:41:54;;;;;;;2.15;1.00;;;;;;;-145.69;43.80;52169.13;5134291;27;20616;-80
2024/02/09 11:44:23;;;;;;;1.05;0.70;;;;;;;-145.69;44.12;52161.19;5133794;27;20197;-80
2024/02/09 11:46:53;;;;;;;3.00;0.90;;;;;;;-145.69;44.32;52147.34;5134009;27;20197;-81
2024/02/09 11:49:23;;;;;;;3.25;1.13;;;;;;;-145.69;44.40;52167.13;5133978;27;20582;-82
2024/02/09 11:51:50;;;;;;;2.05;1.00;;;;;;;-145.69;44.42;52161.19;5133873;27;20297;-81
2024/02/09 11:54:17;;;;;;;3.08;0.75;;;;;;;-145.69;44.18;52159.22;5134016;27;20227;-82
2024/02/09 11:56:46;;;;;;;1.40;0.95;;;;;;;-145.69;44.28;52151.28;5133873;27;20204;-82
2024/02/09 11:59:15;;;;;;;2.15;0.98;;;;;;;-145.69;44.25;52151.28;5133792;27;20200;-82
2024/02/09 12:01:42;;;;;;;3.58;1.20;;;;;;;-145.69;44.21;52143.38;5133792;27;20219;-81
2024/02/09 12:04:10;;;;;;;2.97;1.10;;;;;;;-145.69;43.35;52169.13;5133444;27;20208;-81
2024/02/09 12:06:38;;;;;;;2.17;0.95;;;;;;;-145.69;44.05;52147.34;5133425;27;20208;-81
2024/02/09 12:09:05;;;;;;;2.65;0.90;;;;;;;-145.69;43.56;52153.28;5133648;27;20544;-80
2024/02/09 12:11:32;;;;;;;3.50;1.20;;;;;;;-145.69;42.97;52149.31;5134097;27;20226;-80
2024/02/09 12:13:59;;;;;;;1.77;0.80;;;;;;;-145.69;42.68;52143.38;5133768;27;20687;-80
2024/02/09 12:16:25;;;;;;;2.13;0.90;;;;;;;-145.69;42.56;52149.31;5133723;27;20243;-80
2024/02/09 12:18:54;;;;;;;1.52;0.68;;;;;;;-145.69;42.97;52119.63;5133281;27;20645;-81
2024/02/09 12:21:20;;;;;;;1.63;1.00;;;;;;;-145.69;42.75;52137.44;5133370;27;20196;-81
2024/02/09 12:23:50;;;;;;;1.67;0.70;;;;;;;-145.69;42.18;52143.38;5133766;27;20571;-80
2024/02/09 12:26:18;;;;;;;1.42;0.70;;;;;;;-145.69;42.83;52151.28;5133495;27;20234;-81
2024/02/09 12:28:45;;;;;;;3.38;0.80;;;;;;;-145.69;42.44;52127.53;5133822;27;20205;-81
2024/02/09 12:31:14;;;;;;;1.75;0.80;;;;;;;-145.69;42.74;52143.38;5133450;27;20234;-80
2024/02/09 12:33:44;;;;;;;1.02;0.75;;;;;;;-145.69;42.85;52131.50;5132871;27;20216;-82
2024/02/09 12:36:14;;;;;;;4.97;0.90;;;;;;;-145.69;43.02;52117.63;5133099;27;20189;-82
2024/02/09 12:38:41;;;;;;;2.05;0.75;;;;;;;-145.69;42.87;52155.25;5133431;28;20211;-81
2024/02/09 12:41:09;;;;;;;2.25;1.23;;;;;;;-145.69;42.66;52131.50;5133399;28;20237;-81
2024/02/09 12:43:36;;;;;;;2.42;1.23;;;;;;;-145.69;42.72;52159.22;5133145;28;20644;-81
2024/02/09 12:46:07;;;;;;;2.35;1.20;;;;;;;-145.69;42.62;52145.34;5132568;27;20206;-81
2024/02/09 12:48:36;;;;;;;1.63;0.95;;;;;;;-145.69;42.49;52153.28;5125321;27;20193;-76
2024/02/09 12:51:04;;;;;;;5.38;1.80;;;;;;;-145.69;42.19;52159.22;5113249;28;20197;-81
2024/02/09 12:53:31;;;;;;;2.75;1.27;;;;;;;-145.69;42.06;52159.22;5112966;28;20275;-80
2024/02/09 12:55:58;;;;;;;4.55;1.95;;;;;;;-145.69;42.32;52123.56;5113593;28;20205;-80
2024/02/09 12:58:26;;;;;;;4.40;1.55;;;;;;;-145.69;42.23;52123.56;5117096;28;20651;-80
2024/02/09 13:00:52;;;;;;;8.75;2.45;;;;;;;-145.69;42.03;52163.19;5117242;28;20201;-80
2024/02/09 13:03:20;;;;;;;6.60;2.00;;;;;;;-145.69;41.84;52155.25;5131126;27;20200;-80
2024/02/09 13:05:56;;;;;;;6.90;1.92;;;;;;;-145.69;42.10;52179.03;5137492;27;20207;-80
2024/02/09 13:08:22;;;;;;;3.58;1.75;;;;;;;-145.69;42.15;52145.34;5137235;27;20283;-80